Time;durP1;ratioP1;P1;durP2;ratioP2;P2;SDS_P1;SDS_P2;PMS_P1;PMS_P2;Temp;Humidity;BMP_temperature;BMP_pressure;BME280_temperature;BME280_humidity;BME280_pressure;Samples;Min_cycle;Max_cycle;Signal;HPM_P1;HPM_P2
2021/12/10 00:00:54;;;;;;;16.50;2.47;;;8.30;99.90;;;;;;5014129;28;20181;-62
2021/12/10 00:03:26;;;;;;;11.43;1.53;;;8.30;99.90;;;;;;5014507;28;20558;-61
2021/12/10 00:05:59;;;;;;;7.63;1.07;;;8.30;99.90;;;;;;5014143;28;20181;-61
2021/12/10 00:08:28;;;;;;;14.07;2.03;;;8.30;99.90;;;;;;5000673;28;20546;-61
2021/12/10 00:10:57;;;;;;;7.10;1.67;;;8.30;99.90;;;;;;5014117;28;20261;-61
2021/12/10 00:13:25;;;;;;;13.57;2.07;;;8.20;99.90;;;;;;5013995;28;20563;-61
2021/12/10 00:15:54;;;;;;;8.30;1.70;;;8.20;99.90;;;;;;5013830;28;20360;-61
2021/12/10 00:18:21;;;;;;;11.30;1.50;;;8.20;99.90;;;;;;5002390;28;20179;-61
2021/12/10 00:20:48;;;;;;;7.93;1.80;;;8.20;99.90;;;;;;5013544;28;20229;-61
2021/12/10 00:23:18;;;;;;;14.83;2.30;;;8.20;99.90;;;;;;5014154;28;20261;-61
2021/12/10 00:25:51;;;;;;;15.37;2.37;;;8.30;99.90;;;;;;5014053;28;20198;-61
2021/12/10 00:28:23;;;;;;;15.50;1.80;;;8.20;99.90;;;;;;5013963;28;20171;-61
2021/12/10 00:34:15;;;;;;;13.13;1.83;;;8.20;99.90;;;;;;5014199;28;20178;-61
2021/12/10 00:36:41;;;;;;;12.87;2.13;;;8.20;99.90;;;;;;5000398;28;20205;-61
2021/12/10 00:39:18;;;;;;;10.77;1.97;;;8.20;99.90;;;;;;5013641;28;20284;-61
2021/12/10 00:41:45;;;;;;;17.10;2.13;;;8.20;99.90;;;;;;5013501;28;20184;-62
2021/12/10 00:44:10;;;;;;;15.00;1.67;;;8.20;99.90;;;;;;5013582;28;20663;-61
2021/12/10 00:46:36;;;;;;;13.50;1.77;;;8.20;99.90;;;;;;5003417;28;20175;-62
2021/12/10 00:49:04;;;;;;;13.43;2.13;;;8.20;99.90;;;;;;5013356;28;20591;-61
2021/12/10 00:51:30;;;;;;;9.33;1.60;;;8.20;99.90;;;;;;5013002;28;20179;-61
2021/12/10 00:53:56;;;;;;;7.03;1.13;;;8.10;99.90;;;;;;5012734;28;20224;-61
2021/12/10 00:56:22;;;;;;;9.87;1.23;;;8.20;99.90;;;;;;5013512;28;20187;-62
2021/12/10 00:58:48;;;;;;;4.23;1.00;;;8.20;99.90;;;;;;5013627;28;20159;-61
2021/12/10 01:01:23;;;;;;;7.00;1.20;;;8.20;99.90;;;;;;5013056;28;20182;-61
2021/12/10 01:04:19;;;;;;;8.00;1.00;;;8.20;99.90;;;;;;5013413;28;20204;-62
2021/12/10 01:06:48;;;;;;;8.10;1.20;;;8.20;99.90;;;;;;5009869;28;20183;-62
2021/12/10 01:09:19;;;;;;;8.73;1.03;;;8.10;99.90;;;;;;5012918;28;20163;-61
2021/12/10 01:11:51;;;;;;;7.37;1.07;;;8.10;99.90;;;;;;5012887;28;20171;-62
2021/12/10 01:14:33;;;;;;;5.90;1.23;;;8.10;99.90;;;;;;5012984;28;20655;-62
2021/12/10 01:25:34;;;;;;;7.30;1.10;;;7.90;99.90;;;;;;5012866;28;20229;-62
2021/12/10 01:28:01;;;;;;;8.83;1.10;;;7.80;99.90;;;;;;5013026;28;20183;-63
2021/12/10 01:30:32;;;;;;;6.63;1.10;;;7.80;99.90;;;;;;5012646;28;20237;-63
2021/12/10 01:33:02;;;;;;;7.30;1.20;;;7.80;99.90;;;;;;5012880;28;20201;-63
2021/12/10 01:35:36;;;;;;;8.03;1.60;;;7.80;99.90;;;;;;5012919;28;20193;-63
2021/12/10 01:38:05;;;;;;;11.07;1.43;;;7.80;99.90;;;;;;5012849;28;20244;-64
2021/12/10 01:40:32;;;;;;;6.53;1.40;;;7.80;99.90;;;;;;5012846;28;20190;-64
2021/12/10 01:43:07;;;;;;;7.47;1.40;;;7.80;99.90;;;;;;5012076;28;20205;-63
2021/12/10 01:45:46;;;;;;;2.80;0.90;;;7.80;99.90;;;;;;5012446;28;20245;-63
2021/12/10 01:48:22;;;;;;;7.63;1.20;;;7.80;99.90;;;;;;5006822;28;20232;-63
2021/12/10 01:50:49;;;;;;;6.37;1.10;;;7.70;99.90;;;;;;5012439;28;20209;-63
2021/12/10 01:53:17;;;;;;;9.57;1.27;;;7.70;99.90;;;;;;5012064;28;20649;-63
2021/12/10 01:55:46;;;;;;;8.97;1.10;;;7.60;99.90;;;;;;5012601;28;20166;-63
2021/12/10 01:58:17;;;;;;;5.80;1.00;;;7.50;99.90;;;;;;5012308;28;20268;-63
2021/12/10 02:00:47;;;;;;;7.07;1.37;;;7.50;99.90;;;;;;5012008;28;20533;-63
2021/12/10 02:03:13;;;;;;;13.60;1.57;;;7.40;99.90;;;;;;5012342;28;20171;-63
2021/12/10 02:05:39;;;;;;;7.13;1.27;;;7.30;99.90;;;;;;5012304;28;20182;-63
2021/12/10 02:08:05;;;;;;;5.60;1.20;;;7.20;99.90;;;;;;5011968;28;20235;-64
2021/12/10 02:10:31;;;;;;;7.43;1.23;;;7.10;99.90;;;;;;5011786;28;20221;-62
2021/12/10 02:12:58;;;;;;;11.67;1.30;;;7.00;99.90;;;;;;5011589;28;20178;-62
2021/12/10 02:15:27;;;;;;;15.57;1.50;;;7.00;99.90;;;;;;5011808;28;20182;-62
2021/12/10 02:17:55;;;;;;;8.07;1.57;;;7.00;99.90;;;;;;5011836;28;20202;-62
2021/12/10 02:20:32;;;;;;;11.33;1.70;;;7.00;99.90;;;;;;5011860;28;20175;-62
2021/12/10 02:22:59;;;;;;;10.37;1.83;;;7.00;99.90;;;;;;5011928;28;20178;-62
2021/12/10 02:25:28;;;;;;;17.63;2.03;;;7.00;99.90;;;;;;5011703;28;20182;-62
2021/12/10 02:27:54;;;;;;;10.20;1.73;;;7.00;99.90;;;;;;5011384;28;20194;-62
2021/12/10 02:30:24;;;;;;;12.50;1.77;;;7.00;99.90;;;;;;5011763;28;20256;-62
2021/12/10 02:32:49;;;;;;;9.90;1.50;;;7.00;99.90;;;;;;5011634;28;20258;-61
2021/12/10 02:35:16;;;;;;;13.57;2.07;;;7.10;99.90;;;;;;5011877;28;20604;-62
2021/12/10 02:37:45;;;;;;;8.37;1.43;;;7.10;99.90;;;;;;5011734;28;20174;-61
2021/12/10 02:40:14;;;;;;;12.67;1.70;;;7.10;99.90;;;;;;5011732;28;20178;-62
2021/12/10 02:42:40;;;;;;;15.47;1.93;;;7.20;99.90;;;;;;5011701;28;20163;-62
2021/12/10 02:45:09;;;;;;;16.40;1.80;;;7.10;99.90;;;;;;5011393;28;20190;-62
2021/12/10 02:47:35;;;;;;;13.27;1.37;;;7.10;99.90;;;;;;5011202;28;20174;-62
2021/12/10 02:50:01;;;;;;;15.73;1.90;;;7.00;99.90;;;;;;5011403;28;20911;-62
2021/12/10 02:52:28;;;;;;;14.40;1.90;;;7.00;99.90;;;;;;5011708;28;20611;-62
2021/12/10 02:54:57;;;;;;;8.60;1.83;;;6.90;99.90;;;;;;5011386;28;20174;-61
2021/12/10 02:57:23;;;;;;;12.93;2.00;;;6.90;99.90;;;;;;5011627;28;20193;-62
2021/12/10 02:59:49;;;;;;;16.20;1.83;;;6.90;99.90;;;;;;5011245;28;20190;-62
2021/12/10 03:02:19;;;;;;;16.00;2.03;;;6.90;99.90;;;;;;5011115;28;20182;-62
2021/12/10 03:04:45;;;;;;;14.17;2.00;;;6.90;99.90;;;;;;5011003;28;20170;-62
2021/12/10 03:07:14;;;;;;;18.03;2.17;;;7.00;99.90;;;;;;5011116;28;20870;-62
2021/12/10 03:09:44;;;;;;;9.83;1.43;;;7.00;99.90;;;;;;5011305;28;20217;-62
2021/12/10 03:12:13;;;;;;;14.27;1.70;;;7.00;99.90;;;;;;5010988;28;20240;-62
2021/12/10 03:14:42;;;;;;;17.57;1.93;;;7.00;99.90;;;;;;5010828;28;20237;-62
2021/12/10 03:17:13;;;;;;;11.67;1.60;;;7.00;99.90;;;;;;5011085;28;20642;-62
2021/12/10 03:19:39;;;;;;;12.83;1.77;;;6.90;99.90;;;;;;5010873;28;20192;-63
2021/12/10 03:22:07;;;;;;;17.07;1.87;;;6.80;99.90;;;;;;5010291;28;20229;-66
2021/12/10 03:24:34;;;;;;;18.63;2.17;;;6.70;99.90;;;;;;5010360;28;20177;-61
2021/12/10 03:27:05;;;;;;;11.60;1.90;;;6.70;99.90;;;;;;5010967;28;20262;-61
2021/12/10 03:29:35;;;;;;;12.67;1.50;;;6.60;99.90;;;;;;5010496;28;20202;-62
2021/12/10 03:32:06;;;;;;;10.33;1.60;;;6.40;99.90;;;;;;5010915;28;20584;-62
2021/12/10 03:34:33;;;;;;;9.67;1.57;;;6.30;99.90;;;;;;5010936;28;20175;-62
2021/12/10 03:37:00;;;;;;;18.57;1.80;;;6.30;99.90;;;;;;5011004;28;20236;-62
2021/12/10 03:39:26;;;;;;;12.80;1.60;;;6.20;99.90;;;;;;5010507;28;20174;-62
2021/12/10 03:41:55;;;;;;;13.57;2.03;;;6.20;99.90;;;;;;4996359;28;20622;-62
2021/12/10 03:44:20;;;;;;;14.33;1.90;;;6.10;99.90;;;;;;4999186;28;20302;-62
2021/12/10 03:46:46;;;;;;;17.50;2.10;;;6.20;99.90;;;;;;5000101;28;20618;-62
2021/12/10 03:49:13;;;;;;;5.77;1.37;;;6.20;99.90;;;;;;5010109;28;20280;-62
2021/12/10 03:51:39;;;;;;;21.97;2.57;;;6.20;99.90;;;;;;5010509;28;20711;-62
2021/12/10 03:54:07;;;;;;;10.43;1.73;;;6.10;99.90;;;;;;5010692;28;20175;-62
2021/12/10 03:56:34;;;;;;;11.33;1.47;;;6.20;99.90;;;;;;5010778;28;20656;-62
2021/12/10 03:59:03;;;;;;;7.93;1.30;;;6.20;99.90;;;;;;5010631;28;20197;-62
2021/12/10 04:01:35;;;;;;;16.57;1.63;;;6.30;99.90;;;;;;5010740;28;20267;-62
2021/12/10 04:04:03;;;;;;;11.40;2.27;;;6.30;99.90;;;;;;5010956;28;20262;-62
2021/12/10 04:06:29;;;;;;;12.07;1.60;;;6.40;99.90;;;;;;5010560;28;20178;-62
2021/12/10 04:08:56;;;;;;;8.17;1.30;;;6.40;99.90;;;;;;5009472;28;20634;-63
2021/12/10 04:11:23;;;;;;;4.97;1.13;;;6.50;99.90;;;;;;5010375;28;20221;-64
2021/12/10 04:13:50;;;;;;;10.73;1.47;;;6.50;99.90;;;;;;5010656;28;20177;-64
2021/12/10 04:16:17;;;;;;;12.27;1.70;;;6.60;99.90;;;;;;5010599;28;20183;-64
2021/12/10 04:18:45;;;;;;;10.50;1.67;;;6.50;99.90;;;;;;5010819;28;20233;-64
2021/12/10 04:21:12;;;;;;;15.60;2.23;;;6.50;99.90;;;;;;5010637;28;20183;-64
2021/12/10 04:23:41;;;;;;;15.30;1.97;;;6.50;99.90;;;;;;5010346;28;20266;-64
2021/12/10 04:26:11;;;;;;;7.83;1.40;;;6.50;99.90;;;;;;5010500;28;20174;-64
2021/12/10 04:28:37;;;;;;;8.13;1.20;;;6.50;99.90;;;;;;5013228;28;20178;-64
2021/12/10 04:31:03;;;;;;;5.87;1.20;;;6.40;99.90;;;;;;5014115;28;20542;-63
2021/12/10 04:33:29;;;;;;;11.30;1.47;;;6.30;99.90;;;;;;5014193;28;20208;-64
2021/12/10 04:35:58;;;;;;;11.73;1.40;;;6.20;99.90;;;;;;5013933;28;20175;-64
2021/12/10 04:38:26;;;;;;;11.40;1.20;;;6.10;99.90;;;;;;5013993;28;20167;-64
2021/12/10 04:40:56;;;;;;;6.37;1.20;;;6.00;99.90;;;;;;5013897;28;20170;-61
2021/12/10 04:43:23;;;;;;;15.03;1.60;;;5.90;99.90;;;;;;5014019;28;20182;-61
2021/12/10 04:45:56;;;;;;;7.27;1.30;;;5.80;99.90;;;;;;5013994;28;20197;-61
2021/12/10 04:48:23;;;;;;;11.50;1.47;;;5.70;99.90;;;;;;5013512;28;20262;-61
2021/12/10 04:50:49;;;;;;;10.50;1.10;;;5.70;99.90;;;;;;5013215;28;20202;-62
2021/12/10 04:53:15;;;;;;;5.90;1.10;;;5.80;99.90;;;;;;5015296;28;20277;-61
2021/12/10 04:55:42;;;;;;;12.47;1.57;;;5.80;99.90;;;;;;5013607;28;20197;-61
2021/12/10 04:58:09;;;;;;;8.37;1.57;;;5.80;99.90;;;;;;5013660;28;20175;-61
2021/12/10 05:00:44;;;;;;;9.20;1.10;;;5.90;99.90;;;;;;5013529;28;20174;-61
2021/12/10 05:03:11;;;;;;;10.67;1.63;;;5.90;99.90;;;;;;5013469;28;20216;-61
2021/12/10 05:05:39;;;;;;;8.60;1.23;;;6.00;99.90;;;;;;5013239;28;20570;-61
2021/12/10 05:08:06;;;;;;;8.97;1.20;;;5.90;99.90;;;;;;5013086;28;20181;-62
2021/12/10 05:10:33;;;;;;;10.30;1.30;;;5.80;99.90;;;;;;5013401;28;20237;-61
2021/12/10 05:12:59;;;;;;;9.70;1.13;;;5.70;99.90;;;;;;5013028;28;20256;-61
2021/12/10 05:15:30;;;;;;;10.70;1.20;;;5.60;99.90;;;;;;5013382;28;20171;-62
2021/12/10 05:17:56;;;;;;;7.90;1.20;;;5.60;99.90;;;;;;5013106;28;21950;-61
2021/12/10 05:20:32;;;;;;;6.77;1.30;;;5.50;99.90;;;;;;5013000;28;20553;-62
2021/12/10 05:22:58;;;;;;;9.87;2.00;;;5.40;99.90;;;;;;5012870;28;20178;-61
2021/12/10 05:25:26;;;;;;;8.77;1.43;;;5.40;99.90;;;;;;5012651;28;20171;-61
2021/12/10 05:27:52;;;;;;;6.97;1.27;;;5.30;99.90;;;;;;5012785;28;20688;-63
2021/12/10 05:30:22;;;;;;;8.40;1.10;;;5.20;99.90;;;;;;5013059;28;20214;-62
2021/12/10 05:32:48;;;;;;;14.00;1.57;;;5.10;99.90;;;;;;5042724;28;20175;-61
2021/12/10 05:35:14;;;;;;;15.10;1.57;;;5.10;99.90;;;;;;4997649;28;20244;-61
2021/12/10 05:37:40;;;;;;;9.33;1.47;;;5.10;99.90;;;;;;5012587;28;20173;-61
2021/12/10 05:40:12;;;;;;;10.57;1.53;;;5.10;99.90;;;;;;5012601;28;20233;-61
2021/12/10 05:42:42;;;;;;;10.23;1.47;;;5.10;99.90;;;;;;5012524;28;20179;-61
2021/12/10 05:45:08;;;;;;;13.77;1.63;;;5.00;99.90;;;;;;5012723;28;20228;-61
2021/12/10 05:47:34;;;;;;;9.27;1.50;;;5.10;99.90;;;;;;5012128;28;20255;-62
2021/12/10 05:50:00;;;;;;;10.07;1.63;;;5.10;99.90;;;;;;5012318;28;20246;-61
2021/12/10 05:52:26;;;;;;;15.10;1.63;;;5.00;99.90;;;;;;5012514;28;20180;-61
2021/12/10 05:54:52;;;;;;;7.27;1.43;;;5.00;99.90;;;;;;5012411;28;20555;-61
2021/12/10 05:57:19;;;;;;;8.53;1.20;;;5.00;99.90;;;;;;5012557;28;20178;-61
2021/12/10 05:59:45;;;;;;;13.63;1.40;;;5.10;99.90;;;;;;5012588;28;20182;-61
2021/12/10 06:02:11;;;;;;;7.90;1.13;;;5.10;99.90;;;;;;5012256;28;20178;-61
2021/12/10 06:04:38;;;;;;;14.13;1.37;;;5.10;99.90;;;;;;5012023;28;20588;-61
2021/12/10 06:07:05;;;;;;;12.87;1.13;;;5.10;99.90;;;;;;5012042;28;20537;-61
2021/12/10 06:09:32;;;;;;;13.37;1.50;;;5.10;99.90;;;;;;5012323;28;20507;-61
2021/12/10 06:11:58;;;;;;;13.37;1.93;;;5.10;99.90;;;;;;5011969;28;20514;-61
2021/12/10 06:14:24;;;;;;;13.87;1.43;;;5.20;99.90;;;;;;5012312;28;20181;-61
2021/12/10 06:16:52;;;;;;;10.70;1.40;;;5.20;99.90;;;;;;5011785;28;20261;-61
2021/12/10 06:19:19;;;;;;;9.43;1.20;;;5.20;99.90;;;;;;5012429;28;20183;-62
2021/12/10 06:21:45;;;;;;;11.53;1.50;;;5.30;99.90;;;;;;5012036;28;20171;-62
2021/12/10 06:24:11;;;;;;;7.17;1.37;;;5.30;99.90;;;;;;5011944;28;20703;-63
2021/12/10 06:26:37;;;;;;;8.03;1.83;;;5.30;99.90;;;;;;5011782;28;20178;-63
2021/12/10 06:29:03;;;;;;;13.23;1.20;;;5.30;99.90;;;;;;5011881;28;20217;-62
2021/12/10 06:31:30;;;;;;;7.87;1.23;;;5.30;99.90;;;;;;5011452;28;20271;-62
2021/12/10 06:33:57;;;;;;;13.93;1.03;;;5.40;99.90;;;;;;5011702;28;20266;-62
2021/12/10 06:36:23;;;;;;;7.30;1.33;;;5.30;99.90;;;;;;5011784;28;20190;-62
2021/12/10 06:38:49;;;;;;;8.60;1.70;;;5.40;99.90;;;;;;5011666;28;20229;-62
2021/12/10 06:41:16;;;;;;;8.27;0.97;;;5.40;99.90;;;;;;5011512;28;20182;-62
2021/12/10 06:43:43;;;;;;;2.83;0.80;;;5.40;99.90;;;;;;5011631;28;20186;-62
2021/12/10 06:46:09;;;;;;;6.63;0.97;;;6.00;99.90;;;;;;5011393;28;20193;-62
2021/12/10 06:48:36;;;;;;;4.63;1.10;;;5.40;99.90;;;;;;5011607;28;20249;-62
2021/12/10 06:51:18;;;;;;;13.23;1.00;;;5.50;99.90;;;;;;5010828;28;20246;-62
2021/12/10 06:53:45;;;;;;;5.47;1.00;;;5.50;99.90;;;;;;4994528;28;20186;-62
2021/12/10 06:56:13;;;;;;;3.30;0.70;;;5.50;99.90;;;;;;5011475;28;20277;-63
2021/12/10 06:58:39;;;;;;;2.20;0.30;;;5.50;99.90;;;;;;5011599;28;20182;-63
2021/12/10 07:01:07;;;;;;;5.37;0.90;;;5.50;99.90;;;;;;5011427;28;20170;-62
2021/12/10 07:03:34;;;;;;;5.33;0.60;;;5.40;99.90;;;;;;5011187;28;20185;-62
2021/12/10 07:06:01;;;;;;;8.07;0.60;;;5.30;99.90;;;;;;5011223;28;20201;-61
2021/12/10 07:08:31;;;;;;;1.87;0.70;;;5.20;99.90;;;;;;5011377;28;20669;-62
2021/12/10 07:10:57;;;;;;;5.47;0.60;;;5.10;99.90;;;;;;5010455;28;20210;-61
2021/12/10 07:13:23;;;;;;;2.57;0.70;;;5.10;99.90;;;;;;5010984;28;20182;-62
2021/12/10 07:15:50;;;;;;;4.47;0.90;;;5.10;99.90;;;;;;5010880;28;20233;-62
2021/12/10 07:18:19;;;;;;;5.50;1.03;;;5.10;99.90;;;;;;5010908;28;20170;-62
2021/12/10 07:20:46;;;;;;;9.50;1.00;;;5.10;99.90;;;;;;5011076;28;20637;-62
2021/12/10 07:23:12;;;;;;;4.23;0.70;;;5.10;99.90;;;;;;5010343;28;20167;-62
2021/12/10 07:25:39;;;;;;;7.87;0.87;;;5.20;99.90;;;;;;5010530;28;20182;-62
2021/12/10 07:28:05;;;;;;;7.43;0.90;;;5.20;99.90;;;;;;5010663;28;20170;-62
2021/12/10 07:30:32;;;;;;;4.30;0.73;;;5.20;99.90;;;;;;5010757;28;20206;-62
2021/12/10 07:32:57;;;;;;;8.97;1.40;;;5.20;99.90;;;;;;5010890;28;20174;-62
2021/12/10 07:35:24;;;;;;;4.00;0.80;;;5.20;99.90;;;;;;5010686;28;20188;-62
2021/12/10 07:37:50;;;;;;;10.20;1.13;;;5.30;99.90;;;;;;5010502;28;20266;-62
2021/12/10 07:40:20;;;;;;;2.73;0.90;;;5.20;99.90;;;;;;5010423;28;20281;-62
2021/12/10 07:42:47;;;;;;;5.47;0.80;;;5.20;99.90;;;;;;5010780;28;20179;-62
2021/12/10 07:45:14;;;;;;;9.90;1.23;;;5.10;99.90;;;;;;5011025;28;20244;-62
2021/12/10 07:47:41;;;;;;;6.40;1.03;;;5.10;99.90;;;;;;5010239;28;20650;-62
2021/12/10 07:50:21;;;;;;;4.57;0.83;;;5.00;99.90;;;;;;5010745;28;20218;-62
2021/12/10 07:52:48;;;;;;;3.83;0.73;;;5.00;99.90;;;;;;5008306;28;20183;-63
2021/12/10 07:55:16;;;;;;;6.50;0.97;;;4.90;99.90;;;;;;5010706;28;20225;-62
2021/12/10 07:57:43;;;;;;;6.80;1.07;;;5.00;99.90;;;;;;5006626;28;20675;-67
2021/12/10 08:00:14;;;;;;;2.60;0.70;;;5.00;99.90;;;;;;5010693;28;20186;-65
2021/12/10 08:02:41;;;;;;;4.17;0.70;;;5.00;99.90;;;;;;5012003;28;20216;-65
2021/12/10 08:05:08;;;;;;;6.63;0.70;;;4.90;99.90;;;;;;5014259;28;20678;-66
2021/12/10 08:07:34;;;;;;;6.73;0.77;;;4.90;99.90;;;;;;5014160;28;20189;-66
2021/12/10 08:09:59;;;;;;;3.80;0.90;;;4.90;99.90;;;;;;5013953;28;20202;-64
2021/12/10 08:12:25;;;;;;;3.87;0.83;;;4.90;99.90;;;;;;5013855;28;20217;-65
2021/12/10 08:14:53;;;;;;;6.57;0.97;;;4.90;99.90;;;;;;5014563;28;20175;-70
2021/12/10 08:17:20;;;;;;;6.40;0.80;;;4.90;99.90;;;;;;5014094;28;20637;-71
2021/12/10 08:19:47;;;;;;;3.73;0.80;;;4.80;99.90;;;;;;5014254;28;20182;-70
2021/12/10 08:22:14;;;;;;;5.53;0.70;;;4.90;99.90;;;;;;5013986;28;20184;-71
2021/12/10 08:24:41;;;;;;;6.37;0.97;;;4.90;99.90;;;;;;5014477;28;20187;-72
2021/12/10 08:27:07;;;;;;;9.30;1.17;;;4.90;99.90;;;;;;5014352;28;20324;-70
2021/12/10 08:29:33;;;;;;;5.50;1.00;;;5.00;99.90;;;;;;5014044;28;20167;-68
2021/12/10 08:31:59;;;;;;;6.20;0.97;;;5.00;99.90;;;;;;5013824;28;20264;-65
2021/12/10 08:34:26;;;;;;;8.37;1.20;;;5.10;99.90;;;;;;5013656;28;20265;-65
2021/12/10 08:36:52;;;;;;;4.30;1.00;;;5.20;99.90;;;;;;5013451;28;20171;-66
2021/12/10 08:39:18;;;;;;;5.93;1.43;;;5.30;99.90;;;;;;5013628;28;20241;-69
2021/12/10 08:41:44;;;;;;;7.97;1.27;;;5.40;99.90;;;;;;5012945;28;20645;-69
2021/12/10 08:44:11;;;;;;;10.57;1.03;;;5.40;99.90;;;;;;5013801;28;20182;-69
2021/12/10 08:46:38;;;;;;;8.60;1.40;;;5.40;99.90;;;;;;5013625;28;20629;-68
2021/12/10 08:49:06;;;;;;;9.87;1.33;;;5.40;99.90;;;;;;5012777;28;20226;-69
2021/12/10 08:51:39;;;;;;;9.67;1.20;;;5.40;99.90;;;;;;5013315;28;20218;-69
2021/12/10 08:54:06;;;;;;;6.50;0.90;;;5.40;99.90;;;;;;5013155;28;20202;-67
2021/12/10 08:56:33;;;;;;;9.33;1.13;;;5.80;99.90;;;;;;5012167;28;20763;-67
2021/12/10 08:59:00;;;;;;;8.00;0.80;;;6.20;99.90;;;;;;5012837;28;20190;-68
2021/12/10 09:01:30;;;;;;;5.33;0.90;;;7.00;99.90;;;;;;5011474;28;20202;-68
2021/12/10 09:03:59;;;;;;;16.87;1.57;;;7.10;99.90;;;;;;5011224;28;20637;-68
2021/12/10 09:06:30;;;;;;;23.60;2.10;;;7.30;99.90;;;;;;5026505;28;20859;-68
2021/12/10 09:08:56;;;;;;;7.53;0.87;;;8.10;99.90;;;;;;5011590;28;20179;-69
2021/12/10 09:11:22;;;;;;;32.30;3.57;;;8.10;99.90;;;;;;5011985;28;20230;-68
2021/12/10 09:13:48;;;;;;;8.93;1.20;;;7.50;99.90;;;;;;5015465;28;20175;-69
2021/12/10 09:16:22;;;;;;;16.47;1.63;;;7.00;99.90;;;;;;5013112;28;20236;-67
2021/12/10 09:18:51;;;;;;;7.47;0.80;;;6.90;99.90;;;;;;5012917;28;20167;-69
2021/12/10 09:21:17;;;;;;;6.90;1.17;;;7.20;99.90;;;;;;5013256;28;20202;-69
2021/12/10 09:23:44;;;;;;;6.20;0.90;;;7.10;99.90;;;;;;5013155;28;20174;-69
2021/12/10 09:26:14;;;;;;;4.97;1.00;;;7.20;99.90;;;;;;5012767;28;20469;-69
2021/12/10 09:28:42;;;;;;;7.60;0.70;;;7.40;99.90;;;;;;5028081;28;20547;-67
2021/12/10 09:31:09;;;;;;;6.53;1.00;;;7.90;99.90;;;;;;5012531;28;20233;-68
2021/12/10 09:33:35;;;;;;;2.83;0.60;;;7.80;99.90;;;;;;5013009;28;20178;-67
2021/12/10 09:36:02;;;;;;;8.03;0.80;;;7.60;99.90;;;;;;5012840;28;20170;-66
2021/12/10 09:38:29;;;;;;;8.80;1.20;;;7.80;99.90;;;;;;5012235;28;20174;-68
2021/12/10 09:41:02;;;;;;;14.10;1.33;;;7.80;99.90;;;;;;5012497;28;20189;-66
2021/12/10 09:43:29;;;;;;;7.47;1.27;;;7.70;99.90;;;;;;5008318;28;20206;-66
2021/12/10 09:45:56;;;;;;;5.33;0.80;;;7.80;99.90;;;;;;4994683;28;20538;-66
2021/12/10 09:48:23;;;;;;;5.47;0.80;;;7.70;99.90;;;;;;5012064;28;20217;-66
2021/12/10 09:51:13;;;;;;;10.90;1.53;;;7.80;99.90;;;;;;5011989;28;20213;-67
2021/12/10 09:53:42;;;;;;;5.30;1.17;;;7.90;99.90;;;;;;5012074;28;20272;-67
2021/12/10 09:56:08;;;;;;;4.27;0.87;;;8.00;99.90;;;;;;5012043;28;20183;-67
2021/12/10 09:58:35;;;;;;;9.43;1.50;;;7.80;99.90;;;;;;5012188;28;20257;-67
2021/12/10 10:01:12;;;;;;;6.53;1.13;;;7.50;99.90;;;;;;5012167;28;20645;-67
2021/12/10 10:03:41;;;;;;;11.90;1.17;;;7.40;99.90;;;;;;5011964;28;20186;-65
2021/12/10 10:06:08;;;;;;;11.83;1.23;;;7.40;99.90;;;;;;5012026;28;20178;-63
2021/12/10 10:08:36;;;;;;;8.03;0.90;;;7.30;99.90;;;;;;5012237;28;20171;-63
2021/12/10 10:11:09;;;;;;;8.57;0.97;;;7.30;99.90;;;;;;5011642;28;20234;-64
2021/12/10 10:13:40;;;;;;;10.60;1.40;;;7.60;99.90;;;;;;5012065;28;20201;-64
2021/12/10 10:16:06;;;;;;;9.97;1.17;;;7.80;99.90;;;;;;5011546;28;20166;-63
2021/12/10 10:18:35;;;;;;;7.80;0.73;;;7.80;99.90;;;;;;5011412;28;20405;-64
2021/12/10 10:21:07;;;;;;;5.93;1.20;;;7.90;99.90;;;;;;5010984;28;20181;-64
2021/12/10 10:23:34;;;;;;;15.23;1.23;;;7.90;99.90;;;;;;5011095;28;20178;-64
2021/12/10 10:26:06;;;;;;;8.23;1.20;;;8.00;99.90;;;;;;5010495;28;20711;-64
2021/12/10 10:28:32;;;;;;;12.67;1.10;;;8.00;99.90;;;;;;4992098;28;20180;-64
2021/12/10 10:31:04;;;;;;;6.37;1.27;;;8.10;99.90;;;;;;4991636;28;20265;-64
2021/12/10 10:33:33;;;;;;;6.07;1.00;;;8.10;99.90;;;;;;4991621;28;20646;-63
2021/12/10 10:36:02;;;;;;;8.93;1.43;;;8.00;99.90;;;;;;4992991;28;20175;-64
2021/12/10 10:38:29;;;;;;;12.73;1.60;;;8.10;99.90;;;;;;5011224;28;20178;-64
2021/12/10 10:40:59;;;;;;;7.03;0.97;;;8.20;99.90;;;;;;5011392;28;20178;-65
2021/12/10 10:43:28;;;;;;;8.43;1.30;;;8.10;99.90;;;;;;5011440;28;20202;-65
2021/12/10 10:45:57;;;;;;;6.13;1.00;;;8.10;99.90;;;;;;5011466;28;20175;-64
2021/12/10 10:48:23;;;;;;;16.93;1.73;;;8.00;99.90;;;;;;5011338;28;20222;-63
2021/12/10 10:50:54;;;;;;;7.37;1.57;;;8.00;99.90;;;;;;5010939;28;20237;-64
2021/12/10 10:53:27;;;;;;;12.40;1.50;;;7.90;99.90;;;;;;5001168;28;20278;-64
2021/12/10 10:56:01;;;;;;;12.93;1.43;;;7.90;99.90;;;;;;4996590;28;20193;-64
2021/12/10 10:58:31;;;;;;;8.50;1.27;;;8.00;99.90;;;;;;5011300;28;20657;-64
2021/12/10 11:01:03;;;;;;;8.40;1.37;;;8.10;99.90;;;;;;5001755;28;20269;-63
2021/12/10 11:03:37;;;;;;;13.57;1.50;;;8.10;99.90;;;;;;5011231;28;20653;-64
2021/12/10 11:06:07;;;;;;;11.27;1.50;;;8.60;99.90;;;;;;4993465;28;20176;-64
2021/12/10 11:08:39;;;;;;;16.00;1.73;;;9.00;99.90;;;;;;5011146;28;20606;-64
2021/12/10 11:11:17;;;;;;;14.53;1.30;;;9.20;99.90;;;;;;5010978;28;20300;-64
2021/12/10 11:13:46;;;;;;;7.87;1.53;;;9.70;99.90;;;;;;5010834;28;20950;-64
2021/12/10 11:16:18;;;;;;;11.33;1.53;;;10.20;99.90;;;;;;5010909;28;20197;-64
2021/12/10 11:18:47;;;;;;;10.17;1.40;;;10.60;99.90;;;;;;5010899;28;20213;-64
2021/12/10 11:21:14;;;;;;;13.10;1.70;;;11.10;99.90;;;;;;5010628;28;20175;-64
2021/12/10 11:23:42;;;;;;;5.50;1.17;;;11.40;99.90;;;;;;5010266;28;20190;-65
2021/12/10 11:26:08;;;;;;;8.50;1.47;;;11.50;99.90;;;;;;5010650;28;20186;-64
2021/12/10 11:28:38;;;;;;;10.00;1.27;;;12.00;99.90;;;;;;5010449;28;20665;-64
2021/12/10 11:31:09;;;;;;;10.02;1.60;;;12.60;99.90;;;;;;5010145;28;20218;-65
2021/12/10 11:33:41;;;;;;;9.23;1.07;;;12.40;99.90;;;;;;5010694;28;20171;-65
2021/12/10 11:36:18;;;;;;;11.80;1.55;;;12.10;99.90;;;;;;5011370;28;20680;-65
2021/12/10 11:38:46;;;;;;;11.80;1.60;;;12.40;99.90;;;;;;5014357;28;20178;-65
2021/12/10 11:41:15;;;;;;;5.47;1.08;;;12.90;99.90;;;;;;5014483;28;20173;-65
2021/12/10 11:49:38;;;;;;;8.05;1.52;;;13.40;99.90;;;;;;5014402;28;20233;-65
2021/12/10 11:52:09;;;;;;;7.38;1.40;;;12.80;99.90;;;;;;5014337;28;20206;-65
2021/12/10 11:54:37;;;;;;;7.65;1.50;;;11.60;99.90;;;;;;5014614;28;20178;-65
2021/12/10 11:57:13;;;;;;;8.93;1.55;;;12.00;99.90;;;;;;5014286;28;20182;-66
2021/12/10 11:59:48;;;;;;;12.55;1.38;;;12.30;99.90;;;;;;5014463;28;20178;-65
2021/12/10 12:02:20;;;;;;;7.45;1.30;;;12.00;99.90;;;;;;5014412;28;20174;-65
2021/12/10 12:04:51;;;;;;;9.40;1.40;;;11.70;99.90;;;;;;5014258;28;20178;-65
2021/12/10 12:07:17;;;;;;;7.05;1.48;;;11.50;99.90;;;;;;5013743;28;20559;-66
2021/12/10 12:09:47;;;;;;;10.98;1.70;;;11.80;99.90;;;;;;5014200;28;20171;-70
2021/12/10 12:12:20;;;;;;;9.45;1.50;;;12.60;99.90;;;;;;5014243;28;20187;-71
2021/12/10 12:14:54;;;;;;;5.70;1.38;;;13.70;99.90;;;;;;5013826;28;20260;-69
2021/12/10 12:17:45;;;;;;;12.25;1.50;;;14.00;99.90;;;;;;5014153;28;20182;-70
2021/12/10 12:20:41;;;;;;;10.38;1.83;;;14.00;99.90;;;;;;5014008;28;20171;-70
2021/12/10 12:26:27;;;;;;;12.27;1.45;;;14.60;99.90;;;;;;5013879;28;20247;-70
2021/12/10 12:29:04;;;;;;;9.07;1.33;;;15.20;99.90;;;;;;5014123;28;20802;-70
2021/12/10 12:31:41;;;;;;;9.45;1.73;;;14.00;99.90;;;;;;5013578;28;20548;-70
2021/12/10 12:34:13;;;;;;;7.13;1.02;;;12.60;99.90;;;;;;5013493;28;20253;-69
2021/12/10 12:36:50;;;;;;;12.05;1.65;;;11.40;99.90;;;;;;5013799;28;20170;-69
2021/12/10 12:39:30;;;;;;;8.85;1.38;;;11.00;99.90;;;;;;5013358;28;20170;-69
2021/12/10 12:41:58;;;;;;;7.28;1.25;;;11.20;99.90;;;;;;5013737;28;20648;-68
2021/12/10 12:44:30;;;;;;;8.68;1.25;;;12.30;99.90;;;;;;5013226;28;20660;-68
2021/12/10 12:46:57;;;;;;;10.40;1.42;;;13.40;99.90;;;;;;5013540;28;20650;-69
2021/12/10 12:49:23;;;;;;;5.82;1.10;;;13.40;99.90;;;;;;5012333;28;20226;-70
2021/12/10 12:52:04;;;;;;;8.60;1.05;;;12.50;99.90;;;;;;5013523;28;20217;-73
2021/12/10 12:54:32;;;;;;;9.75;1.33;;;12.40;99.90;;;;;;5013126;28;20275;-73
2021/12/10 12:56:58;;;;;;;3.92;0.95;;;13.10;99.90;;;;;;5028198;28;20190;-73
2021/12/10 12:59:24;;;;;;;10.10;1.40;;;12.90;99.90;;;;;;5012907;28;20179;-74
2021/12/10 13:01:55;;;;;;;7.30;1.65;;;13.60;99.90;;;;;;5013382;28;20190;-69
2021/12/10 13:04:48;;;;;;;8.50;1.30;;;12.80;99.90;;;;;;5012614;28;20167;-70
2021/12/10 13:07:18;;;;;;;7.45;1.30;;;12.80;99.90;;;;;;5013355;28;20206;-74
2021/12/10 13:09:49;;;;;;;11.98;1.70;;;12.30;99.90;;;;;;5012876;28;20539;-75
2021/12/10 13:15:33;;;;;;;8.40;1.25;;;11.50;99.90;;;;;;4960217;28;20551;-69
2021/12/10 13:18:07;;;;;;;10.18;1.38;;;11.20;99.90;;;;;;4993172;28;20176;-72
2021/12/10 13:20:40;;;;;;;4.67;1.00;;;10.80;99.90;;;;;;4992693;28;20175;-73
2021/12/10 13:23:16;;;;;;;8.63;1.20;;;11.20;99.90;;;;;;4993358;28;20171;-72